Carroll, IA

2:22 PM CDT on August 28, 2015 (GMT -0500)
Neu | | Change Station
CLOSE
Current Station
Airport
Location: Carroll,
Elevation: 1204 ft
Nearby Weather Stations

Elev 1204 ft 42.04 °N, 94.79 °W | Updated 7 minutes ago

Overcast
Overcast
70 °F
Feels Like 70 °F
N
10
Wind Variable Wind from SSW

Today
High -- | Low -- °F
--% Chance of Precip.
Yesterday
High -- | Low -- °F
Precip. -- in
6:40 AM 7:59 PM
Waxing Gibbous, 99% visible
Pressure 29.84 in
Visibility 2.0 miles
Clouds Overcast 1400 ft
Dew Point 70 °F
Humidity 100%
Rainfall 1.51 in
Snow Depth Not available.
UV 3 out of 12
Pollen 1.10 out of 12
Air Quality Not available.
Flu Activity Not available.
METAR KCIN 281915Z AUTO 20009KT 2SM BR OVC014 21/21 A2984 RMK AO2
Pressure 29.84 in
Visibility 2.0 miles
Clouds Overcast 1400 ft
Dew Point 70 °F
Humidity 100%
Rainfall 1.51 in
Snow Depth Not available.
UV 3 out of 12
Pollen 1.10 out of 12
Air Quality Not available.
Flu Activity Not available.
METAR KCIN 281915Z AUTO 20009KT 2SM BR OVC014 21/21 A2984 RMK AO2

10-Day Weather Forecast

×

Almanac

Astronomy

Aug. 28, 2015 Rise Set
Actual Time
Civil Twilight
Nautical Twilight
Astronomical Twilight
Moon
Length of Visible Light
Length of Day
Tomorrow will be .
, % of the Moon is Illuminated

Today's Extremes

State Highs State Lows

Community

WunderPhotos

Upload Photos

1,850,462 photos uploaded!

WunderBlogs® & News

Nearby

Air Quality

  Air Quality AQ Index Pollutant
Not available.

Snow Depth

Station Depth Elevation

Earthquake Activity

City Distance Mag. Time & Date
Minimum magnitude displayed is 2.5.

Coastal Water Temperatures

Place Temperature

Stations

Nearby Weather Stations

Station Location Temp. Windchill Dew Point Humidity Wind Precip. Elev Updated Type